Junction, Texas
Current Conditions -  °F | °C
As of 9:51 AM on Wednesday 26 Nov 2014 (Local Time) from KJCT Reporting Station
Clear Clear  
Wind Chill: 54°   Ceiling: Unl
Heat Index: 54°   Visibility: 10mi
Dew Point: 31°   Wind: 0mph
Humidity: 41%   Direction: NA
Pressure: 30.23"   Gusts: NA
Location:  30.49°N, 99.77°W
Report Text: KJCT 261551Z AUTO 00000KT 10SM CLR 12/M01 A3023 RMK AO2 SLP223 T01221006
Loading
Personal Weather Stations






























Interactive Weather Map New forecast layout! Learn more

10-Day Weather Forecast

Advertisements
Track Severe Weather on mobile